createdAt,value
2022-10-23T00:00:23.203Z,11.02
2022-10-23T00:05:50.494Z,11.04
2022-10-23T00:10:57.824Z,11.06
2022-10-23T00:16:05.864Z,11.07
2022-10-23T00:21:17.038Z,11.10
2022-10-23T00:26:24.418Z,11.11
2022-10-23T00:31:31.478Z,11.12
2022-10-23T00:36:38.965Z,11.13
2022-10-23T00:41:45.923Z,11.16
2022-10-23T00:46:53.131Z,11.18
2022-10-23T00:52:04.728Z,11.19
2022-10-23T00:57:16.128Z,11.20
2022-10-23T01:02:23.227Z,11.22
2022-10-23T01:07:35.546Z,11.24
2022-10-23T01:12:51.944Z,11.25
2022-10-23T01:18:07.291Z,11.24
2022-10-23T01:23:36.440Z,11.23
2022-10-23T01:28:49.835Z,11.25
2022-10-23T01:34:01.499Z,11.25
2022-10-23T01:39:13.207Z,11.23
2022-10-23T01:44:29.604Z,11.24
2022-10-23T01:49:40.697Z,11.23
2022-10-23T01:54:51.462Z,11.17
2022-10-23T02:00:03.319Z,11.13
2022-10-23T02:05:17.200Z,11.07
2022-10-23T02:10:31.824Z,11.02
2022-10-23T02:15:42.295Z,11.01
2022-10-23T02:20:56.585Z,11.01
2022-10-23T02:26:22.520Z,11.01
2022-10-23T02:31:29.089Z,10.97
2022-10-23T02:36:36.738Z,10.97
2022-10-23T02:41:48.203Z,10.96
2022-10-23T02:47:02.721Z,10.93
2022-10-23T02:52:16.081Z,10.93
2022-10-23T02:57:29.925Z,10.88
2022-10-23T03:02:42.396Z,10.80
2022-10-23T03:07:50.774Z,10.72
2022-10-23T03:12:58.107Z,10.67
2022-10-23T03:18:05.563Z,10.67
2022-10-23T03:23:15.185Z,10.60
2022-10-23T03:28:22.282Z,10.61
2022-10-23T03:33:29.115Z,10.62
2022-10-23T03:38:34.755Z,10.59
2022-10-23T03:43:42.113Z,10.56
2022-10-23T03:48:49.071Z,10.55
2022-10-23T03:53:54.715Z,10.53
2022-10-23T03:59:01.729Z,10.49
2022-10-23T04:04:09.065Z,10.46
2022-10-23T04:09:17.159Z,10.43
2022-10-23T04:14:24.526Z,10.41
2022-10-23T04:19:31.629Z,10.44
2022-10-23T04:24:38.645Z,10.47
2022-10-23T04:29:45.827Z,10.39
2022-10-23T04:34:52.813Z,10.29
2022-10-23T04:39:59.807Z,10.19
2022-10-23T04:45:05.550Z,9.98
2022-10-23T04:50:13.104Z,9.87
2022-10-23T04:55:21.031Z,9.83
2022-10-23T05:00:28.674Z,9.81
2022-10-23T05:05:35.934Z,9.78
2022-10-23T05:10:43.214Z,9.75
2022-10-23T05:15:51.549Z,9.71
2022-10-23T05:21:02.133Z,9.57
2022-10-23T05:26:10.260Z,9.37
2022-10-23T05:31:19.670Z,9.24
2022-10-23T05:36:27.265Z,9.19
2022-10-23T05:41:34.457Z,9.19
2022-10-23T05:46:45.402Z,9.19
2022-10-23T05:51:52.636Z,9.24
2022-10-23T05:56:59.646Z,9.40
2022-10-23T06:02:04.992Z,9.56
2022-10-23T06:07:12.180Z,9.64
2022-10-23T06:12:19.113Z,9.69
2022-10-23T06:17:24.377Z,9.77
2022-10-23T06:22:31.782Z,9.81
2022-10-23T06:27:38.640Z,9.84
2022-10-23T06:32:44.257Z,9.91
2022-10-23T06:37:51.546Z,10.06
2022-10-23T06:42:58.490Z,10.22
2022-10-23T06:48:06.273Z,10.35
2022-10-23T06:53:13.285Z,10.46
2022-10-23T06:58:20.290Z,10.60
2022-10-23T07:03:27.282Z,10.74
2022-10-23T07:08:33.425Z,10.88
2022-10-23T07:13:41.260Z,10.99
2022-10-23T07:18:49.585Z,11.10
2022-10-23T07:23:57.240Z,11.20
2022-10-23T07:29:04.573Z,11.30
2022-10-23T07:34:12.510Z,11.37
2022-10-23T07:39:19.703Z,11.47
2022-10-23T07:44:27.908Z,11.57
2022-10-23T07:49:35.176Z,11.74
2022-10-23T07:54:42.628Z,11.90
2022-10-23T07:59:49.778Z,12.05
2022-10-23T08:04:56.723Z,12.23
2022-10-23T08:10:03.540Z,12.40
2022-10-23T08:15:12.153Z,12.57
2022-10-23T08:20:19.132Z,12.71
2022-10-23T08:25:26.294Z,12.84
2022-10-23T08:30:34.842Z,12.90
2022-10-23T08:35:42.711Z,12.98
2022-10-23T08:50:45.695Z,13.19
2022-10-23T08:55:58.164Z,13.24
2022-10-23T09:01:18.962Z,13.35
2022-10-23T09:06:36.475Z,13.46
2022-10-23T09:11:51.199Z,13.48
2022-10-23T09:17:12.069Z,13.52
2022-10-23T09:22:19.219Z,13.60
2022-10-23T09:27:26.230Z,13.68
2022-10-23T09:32:38.205Z,13.77
2022-10-23T09:37:53.353Z,13.86
2022-10-23T09:43:03.973Z,13.98
2022-10-23T09:48:16.138Z,14.16
2022-10-23T09:53:31.716Z,14.28
2022-10-23T09:58:44.507Z,14.36
2022-10-23T10:03:53.877Z,14.47
2022-10-23T10:09:03.281Z,14.59
2022-10-23T10:14:37.432Z,14.73
2022-10-23T10:20:05.233Z,14.89
2022-10-23T10:25:20.385Z,15.05
2022-10-23T10:30:31.556Z,15.22
2022-10-23T10:35:51.226Z,15.38
2022-10-23T10:41:35.945Z,15.47
2022-10-23T10:46:49.778Z,15.56
2022-10-23T10:52:04.655Z,15.64
2022-10-23T10:57:22.023Z,15.76
2022-10-23T11:02:35.326Z,15.85
2022-10-23T11:07:50.067Z,15.93
2022-10-23T11:12:58.186Z,16.02
2022-10-23T11:18:13.698Z,16.12
2022-10-23T11:23:52.845Z,16.18
2022-10-23T11:29:21.544Z,16.24
2022-10-23T11:34:45.711Z,16.33
2022-10-23T11:40:22.617Z,16.42
2022-10-23T11:45:35.769Z,16.45
2022-10-23T11:50:58.179Z,16.47
2022-10-23T11:56:25.178Z,16.52
2022-10-23T12:01:42.843Z,16.60
2022-10-23T12:06:52.247Z,16.64
2022-10-23T12:12:16.191Z,16.67
2022-10-23T12:17:31.535Z,16.69
2022-10-23T12:22:45.333Z,16.71
2022-10-23T12:28:01.161Z,16.73
2022-10-23T12:33:18.110Z,16.71
2022-10-23T12:38:28.643Z,16.64
2022-10-23T12:43:40.804Z,16.54
2022-10-23T12:48:54.692Z,16.45
2022-10-23T12:54:02.779Z,16.38
2022-10-23T12:59:18.816Z,16.41
2022-10-23T13:04:31.093Z,16.44
2022-10-23T13:09:41.085Z,16.50
2022-10-23T13:15:01.316Z,16.56
2022-10-23T13:20:26.755Z,16.59
2022-10-23T13:25:36.632Z,16.59
2022-10-23T13:30:46.724Z,16.59
2022-10-23T13:36:00.446Z,16.55
2022-10-23T13:41:12.531Z,16.50
2022-10-23T13:46:21.804Z,16.42
2022-10-23T13:51:31.681Z,16.37
2022-10-23T13:56:38.570Z,16.31
2022-10-23T14:01:48.195Z,16.27
2022-10-23T14:06:58.744Z,16.21
2022-10-23T14:12:06.219Z,16.16
2022-10-23T14:17:13.452Z,16.11
2022-10-23T14:22:21.856Z,16.07
2022-10-23T14:27:29.950Z,16.04
2022-10-23T14:32:37.189Z,15.99
2022-10-23T14:37:44.694Z,15.92
2022-10-23T14:42:52.199Z,15.88
2022-10-23T14:48:01.292Z,15.82
2022-10-23T14:53:08.337Z,15.70
2022-10-23T14:58:15.854Z,15.59
2022-10-23T15:03:22.956Z,15.47
2022-10-23T15:08:30.869Z,15.35
2022-10-23T15:13:38.190Z,15.23
2022-10-23T15:18:45.435Z,15.10
2022-10-23T15:23:53.295Z,14.98
2022-10-23T15:29:02.278Z,14.83
2022-10-23T15:34:11.555Z,14.66
2022-10-23T15:39:21.908Z,14.45
2022-10-23T15:44:32.191Z,14.28
2022-10-23T15:49:40.126Z,14.15
2022-10-23T15:54:47.380Z,14.02
2022-10-23T15:59:54.404Z,13.78
2022-10-23T16:05:01.465Z,13.56
2022-10-23T16:10:10.122Z,13.35
2022-10-23T16:15:17.493Z,13.22
2022-10-23T16:20:24.847Z,13.10
2022-10-23T16:30:46.610Z,12.65
2022-10-23T16:35:53.685Z,12.43
2022-10-23T16:41:03.596Z,12.33
2022-10-23T16:46:16.371Z,12.28
2022-10-23T16:51:25.893Z,12.23
2022-10-23T16:56:33.562Z,12.00
2022-10-23T17:01:41.002Z,11.78
2022-10-23T17:06:48.265Z,11.64
2022-10-23T17:11:55.800Z,11.49
2022-10-23T17:17:04.407Z,11.30
2022-10-23T17:22:12.925Z,11.15
2022-10-23T17:27:20.408Z,11.02
2022-10-23T17:32:27.697Z,10.98
2022-10-23T17:37:34.914Z,10.92
2022-10-23T17:42:42.340Z,10.80
2022-10-23T17:47:50.318Z,10.63
2022-10-23T17:52:57.168Z,10.53
2022-10-23T17:58:02.502Z,10.44
2022-10-23T18:03:09.898Z,10.40
2022-10-23T18:08:17.458Z,10.31
2022-10-23T18:13:25.051Z,10.22
2022-10-23T18:18:32.212Z,10.21
2022-10-23T18:23:39.525Z,10.18
2022-10-23T18:28:47.735Z,10.20
2022-10-23T18:33:58.616Z,10.15
2022-10-23T18:39:06.644Z,10.05
2022-10-23T18:44:18.054Z,9.97
2022-10-23T18:49:25.541Z,9.91
2022-10-23T18:54:32.980Z,9.84
2022-10-23T18:59:40.225Z,9.77
2022-10-23T19:04:47.322Z,9.70
2022-10-23T19:09:54.469Z,9.67
2022-10-23T19:15:02.378Z,9.68
2022-10-23T19:20:14.968Z,9.64
2022-10-23T19:25:26.779Z,9.58
2022-10-23T19:30:34.059Z,9.46
2022-10-23T19:35:41.283Z,9.33
2022-10-23T19:40:48.783Z,9.21
2022-10-23T19:45:56.108Z,9.13
2022-10-23T19:51:04.279Z,9.06
2022-10-23T19:56:13.583Z,9.00
2022-10-23T20:01:24.407Z,8.92
2022-10-23T20:06:34.829Z,8.91
2022-10-23T20:11:43.866Z,8.92
2022-10-23T20:16:55.728Z,8.92
2022-10-23T20:22:03.582Z,8.81
2022-10-23T20:27:13.760Z,8.75
2022-10-23T20:32:21.026Z,8.60
2022-10-23T20:37:28.289Z,8.49
2022-10-23T20:42:35.090Z,8.47
2022-10-23T20:47:40.914Z,8.35
2022-10-23T20:52:48.473Z,8.36
2022-10-23T20:57:56.563Z,8.31
2022-10-23T21:03:05.590Z,8.27
2022-10-23T21:08:12.558Z,8.15
2022-10-23T21:13:18.124Z,8.06
2022-10-23T21:18:44.952Z,8.12
2022-10-23T21:23:55.282Z,8.17
2022-10-23T21:29:19.512Z,8.24
2022-10-23T21:34:27.969Z,8.26
2022-10-23T21:39:34.880Z,8.21
2022-10-23T21:44:40.463Z,8.08
2022-10-23T21:49:47.744Z,7.94
2022-10-23T21:54:56.781Z,7.76
2022-10-23T22:00:03.788Z,7.63
2022-10-23T22:05:09.913Z,7.64
2022-10-23T22:10:17.458Z,7.68
2022-10-23T22:15:24.694Z,7.65
2022-10-23T22:20:30.220Z,7.51
2022-10-23T22:25:41.003Z,7.37
2022-10-23T22:30:49.048Z,7.25
2022-10-23T22:36:00.970Z,7.30
2022-10-23T22:41:08.901Z,7.36
2022-10-23T22:46:17.830Z,7.42
2022-10-23T22:51:27.850Z,7.47
2022-10-23T22:56:35.236Z,7.48
2022-10-23T23:01:44.851Z,7.57
2022-10-23T23:06:51.853Z,7.64
2022-10-23T23:11:58.675Z,7.52
2022-10-23T23:22:31.683Z,7.41
2022-10-23T23:27:37.754Z,7.25
2022-10-23T23:32:44.877Z,7.15
2022-10-23T23:37:52.452Z,7.14
2022-10-23T23:42:59.650Z,7.15
2022-10-23T23:48:07.743Z,7.13
2022-10-23T23:53:14.638Z,7.01
2022-10-23T23:58:21.771Z,6.94
